sensor_id;sensor_type;location;lat;lon;timestamp;P1;durP1;ratioP1;P2;durP2;ratioP2
38611;SDS011;24368;52.156;20.788;2024-01-30T17:23:13;9.10;;;7.50;;
38611;SDS011;24368;52.156;20.788;2024-01-30T17:28:15;10.90;;;9.10;;
38611;SDS011;24368;52.156;20.788;2024-01-30T17:33:17;12.50;;;9.60;;
38611;SDS011;24368;52.156;20.788;2024-01-30T17:43:43;11.80;;;8.60;;
38611;SDS011;24368;52.156;20.788;2024-01-30T17:48:45;13.60;;;9.80;;
38611;SDS011;24368;52.156;20.788;2024-01-30T17:53:47;12.90;;;9.70;;
38611;SDS011;24368;52.156;20.788;2024-01-30T17:58:49;11.70;;;9.00;;
38611;SDS011;24368;52.156;20.788;2024-01-30T18:03:52;13.20;;;8.90;;
38611;SDS011;24368;52.156;20.788;2024-01-30T18:08:56;11.30;;;8.70;;
38611;SDS011;24368;52.156;20.788;2024-01-30T18:13:58;11.90;;;9.40;;
38611;SDS011;24368;52.156;20.788;2024-01-30T18:19:00;12.40;;;8.10;;
38611;SDS011;24368;52.156;20.788;2024-01-30T18:24:02;11.50;;;8.80;;
38611;SDS011;24368;52.156;20.788;2024-01-30T18:29:04;14.70;;;9.50;;
38611;SDS011;24368;52.156;20.788;2024-01-30T18:34:07;12.60;;;9.10;;
38611;SDS011;24368;52.156;20.788;2024-01-30T18:39:09;14.10;;;9.40;;
38611;SDS011;24368;52.156;20.788;2024-01-30T18:44:12;16.50;;;9.80;;
38611;SDS011;24368;52.156;20.788;2024-01-30T18:49:14;15.00;;;10.30;;
38611;SDS011;24368;52.156;20.788;2024-01-30T18:54:16;10.70;;;7.90;;
38611;SDS011;24368;52.156;20.788;2024-01-30T18:59:18;14.30;;;9.50;;
38611;SDS011;24368;52.156;20.788;2024-01-30T19:04:19;13.40;;;10.10;;
38611;SDS011;24368;52.156;20.788;2024-01-30T19:09:21;13.70;;;9.60;;
38611;SDS011;24368;52.156;20.788;2024-01-30T19:14:23;14.30;;;8.70;;
38611;SDS011;24368;52.156;20.788;2024-01-30T19:19:25;16.40;;;11.80;;
38611;SDS011;24368;52.156;20.788;2024-01-30T19:24:27;13.30;;;9.50;;
38611;SDS011;24368;52.156;20.788;2024-01-30T19:29:29;12.80;;;8.40;;
38611;SDS011;24368;52.156;20.788;2024-01-30T19:34:31;15.90;;;10.00;;
38611;SDS011;24368;52.156;20.788;2024-01-30T19:39:33;14.00;;;10.70;;
38611;SDS011;24368;52.156;20.788;2024-01-30T19:44:35;13.50;;;10.40;;
38611;SDS011;24368;52.156;20.788;2024-01-30T19:49:39;14.90;;;10.70;;
38611;SDS011;24368;52.156;20.788;2024-01-30T19:54:41;17.30;;;10.40;;
38611;SDS011;24368;52.156;20.788;2024-01-30T19:59:43;17.30;;;11.30;;
38611;SDS011;24368;52.156;20.788;2024-01-30T20:04:45;15.10;;;10.30;;
38611;SDS011;24368;52.156;20.788;2024-01-30T20:09:46;17.80;;;12.60;;
38611;SDS011;24368;52.156;20.788;2024-01-30T20:14:49;14.00;;;10.80;;
38611;SDS011;24368;52.156;20.788;2024-01-30T20:19:51;17.20;;;11.70;;
38611;SDS011;24368;52.156;20.788;2024-01-30T20:24:55;12.20;;;9.10;;
38611;SDS011;24368;52.156;20.788;2024-01-30T20:29:57;14.20;;;12.00;;
38611;SDS011;24368;52.156;20.788;2024-01-30T20:35:00;13.20;;;10.40;;
38611;SDS011;24368;52.156;20.788;2024-01-30T20:40:04;22.30;;;13.90;;
38611;SDS011;24368;52.156;20.788;2024-01-30T20:45:07;16.10;;;11.90;;
38611;SDS011;24368;52.156;20.788;2024-01-30T20:50:09;19.90;;;12.00;;
38611;SDS011;24368;52.156;20.788;2024-01-30T20:55:11;20.30;;;12.10;;
38611;SDS011;24368;52.156;20.788;2024-01-30T21:00:15;18.70;;;12.70;;
38611;SDS011;24368;52.156;20.788;2024-01-30T21:05:18;18.50;;;13.00;;
38611;SDS011;24368;52.156;20.788;2024-01-30T21:15:26;15.80;;;11.60;;
38611;SDS011;24368;52.156;20.788;2024-01-30T21:20:28;18.90;;;13.50;;
38611;SDS011;24368;52.156;20.788;2024-01-30T21:25:29;17.40;;;12.50;;
38611;SDS011;24368;52.156;20.788;2024-01-30T21:30:31;16.70;;;13.20;;
38611;SDS011;24368;52.156;20.788;2024-01-30T21:35:33;20.30;;;13.40;;
38611;SDS011;24368;52.156;20.788;2024-01-30T21:53:39;19.80;;;13.60;;
38611;SDS011;24368;52.156;20.788;2024-01-30T21:58:41;17.30;;;12.80;;
38611;SDS011;24368;52.156;20.788;2024-01-30T22:03:44;18.90;;;12.80;;
38611;SDS011;24368;52.156;20.788;2024-01-30T22:08:47;17.60;;;12.60;;
38611;SDS011;24368;52.156;20.788;2024-01-30T22:13:49;17.20;;;10.90;;
38611;SDS011;24368;52.156;20.788;2024-01-30T22:18:51;19.00;;;13.10;;
38611;SDS011;24368;52.156;20.788;2024-01-30T22:23:54;15.10;;;11.30;;
38611;SDS011;24368;52.156;20.788;2024-01-30T22:28:56;16.80;;;11.30;;
38611;SDS011;24368;52.156;20.788;2024-01-30T22:33:59;19.30;;;12.80;;
38611;SDS011;24368;52.156;20.788;2024-01-30T22:39:02;20.40;;;12.90;;
38611;SDS011;24368;52.156;20.788;2024-01-30T22:44:11;16.30;;;12.30;;
38611;SDS011;24368;52.156;20.788;2024-01-30T22:49:13;18.20;;;11.80;;
38611;SDS011;24368;52.156;20.788;2024-01-30T22:54:16;17.80;;;11.30;;
38611;SDS011;24368;52.156;20.788;2024-01-30T22:59:19;16.80;;;12.30;;
38611;SDS011;24368;52.156;20.788;2024-01-30T23:04:21;19.10;;;13.30;;
38611;SDS011;24368;52.156;20.788;2024-01-30T23:09:23;18.30;;;14.10;;
38611;SDS011;24368;52.156;20.788;2024-01-30T23:14:25;21.10;;;13.50;;
38611;SDS011;24368;52.156;20.788;2024-01-30T23:19:27;19.80;;;12.80;;
38611;SDS011;24368;52.156;20.788;2024-01-30T23:24:29;17.40;;;13.00;;
38611;SDS011;24368;52.156;20.788;2024-01-30T23:29:33;18.70;;;13.00;;
38611;SDS011;24368;52.156;20.788;2024-01-30T23:34:35;16.40;;;12.50;;
38611;SDS011;24368;52.156;20.788;2024-01-30T23:39:37;19.30;;;12.60;;
38611;SDS011;24368;52.156;20.788;2024-01-30T23:44:40;18.70;;;11.50;;
38611;SDS011;24368;52.156;20.788;2024-01-30T23:49:42;15.50;;;11.50;;
38611;SDS011;24368;52.156;20.788;2024-01-30T23:54:44;15.50;;;11.00;;
38611;SDS011;24368;52.156;20.788;2024-01-30T23:59:46;13.40;;;11.20;;
